Atlantic Aquarius — VRDX6 — position and weather

sailwx.info

Track history (hours):
 
Tides and Currents Weather Stations Pressure Air Temp Water Temp Dewpoint Dewpoint Depression Visibility Wind Speed Wind Dir Waves Ship Positions

Atlantic Aquarius

Last reported at 2014-Sep-28 13:31 UTC. Time now 2014-Nov-01 02:03 UTC.
Position N 01°16' E 104°08'.
Warning: this ship's position is 33 days out of date.

Length 183 m; draft 9.7 m.

Type: Tanker. MMSI: 477071400.

Date/timePositionNaut miles runAvg speedWind from/ knotsBaromVisibWave heightAir tempDewpointWater temp
2014-Sep-28 13:31N 01°16' E 104°08'8 8.8
2014-Sep-28 12:34N 01°14' E 104°00'8 7.7
2014-Sep-28 11:33N 01°12' E 103°53'9 9.1
2014-Sep-28 10:34N 01°07' E 103°45'8 7.6
2014-Sep-28 09:34N 01°03' E 103°39'8 7.9
2014-Sep-28 08:33N 01°09' E 103°34'7 7.2
2014-Sep-28 07:33N 01°11' E 103°40'2 1.5
2014-Sep-28 06:34N 01°11' E 103°42'0 0.0
2014-Sep-28 05:34N 01°11' E 103°42'0 0.0
2014-Sep-28 04:34N 01°11' E 103°42'0 0.2
2014-Sep-28 03:34N 01°11' E 103°42'0 0.0
2014-Sep-28 02:34N 01°11' E 103°42'0 0.0
2014-Sep-28 01:33N 01°11' E 103°42'0 0.0
2014-Sep-28 00:34N 01°11' E 103°42'0 0.0
2014-Sep-27 23:33N 01°11' E 103°42'0 0.0
2014-Sep-27 22:33N 01°11' E 103°42'0 0.0
2014-Sep-27 21:33N 01°11' E 103°42'0 0.1
2014-Sep-27 20:33N 01°11' E 103°42'0 0.2
2014-Sep-27 19:33N 01°11' E 103°42'0 0.0
2014-Sep-27 18:34N 01°11' E 103°42'0 0.1
2014-Sep-27 17:33N 01°11' E 103°42'2 1.8
2014-Sep-27 16:34N 01°11' E 103°40'7 7.0
2014-Sep-27 15:34N 01°17' E 103°44'0 0.2
2014-Sep-27 14:28N 01°17' E 103°44'0 0.0
2014-Sep-27 13:28N 01°17' E 103°44'0 0.0
2014-Sep-27 12:31N 01°17' E 103°44'0 0.0
2014-Sep-27 11:31N 01°17' E 103°44'0 0.0
2014-Sep-27 10:31N 01°17' E 103°44'0 0.0
2014-Sep-27 09:31N 01°17' E 103°44'0 0.0
2014-Sep-27 08:31N 01°17' E 103°44'0 0.0
2014-Sep-27 07:31N 01°17' E 103°44'0 0.0
2014-Sep-27 06:31N 01°17' E 103°44'0 0.0
2014-Sep-27 05:31N 01°17' E 103°44'0 0.0
2014-Sep-27 04:31N 01°17' E 103°44'0 0.0
2014-Sep-27 03:31N 01°17' E 103°44'0 0.0
2014-Sep-27 02:28N 01°17' E 103°44'0 0.0
2014-Sep-27 01:31N 01°17' E 103°44'0 0.0
2014-Sep-27 00:31N 01°17' E 103°44'0 0.0
2014-Sep-26 23:31N 01°17' E 103°44'0 0.0
2014-Sep-26 22:31N 01°17' E 103°44'0 0.0
2014-Sep-26 21:31N 01°17' E 103°44'0 0.0
2014-Sep-26 20:31N 01°17' E 103°44'0 0.0
2014-Sep-26 19:31N 01°17' E 103°44'0 0.0
2014-Sep-26 18:31N 01°17' E 103°44'0 0.0
2014-Sep-26 17:31N 01°17' E 103°44'0 0.0
2014-Sep-26 16:19N 01°17' E 103°44'0 0.0
2014-Sep-26 15:31N 01°17' E 103°44'0 0.0
2014-Sep-26 14:31N 01°17' E 103°44'0 0.0
2014-Sep-26 13:31N 01°17' E 103°44'0 0.0
2014-Sep-26 12:28N 01°17' E 103°44'0 0.0
2014-Sep-26 11:28N 01°17' E 103°44'0 0.0
2014-Sep-26 10:31N 01°17' E 103°44'0 0.0
2014-Sep-26 09:31N 01°17' E 103°44'0 0.0
2014-Sep-26 08:31N 01°17' E 103°44'0 0.0
2014-Sep-26 07:31N 01°17' E 103°44'0 0.0
2014-Sep-26 06:31N 01°17' E 103°44'0 0.0
2014-Sep-26 05:31N 01°17' E 103°44'0 0.0
2014-Sep-26 04:28N 01°17' E 103°44'0 0.0
2014-Sep-26 03:25N 01°17' E 103°44'0 0.0
2014-Sep-26 02:31N 01°17' E 103°44'0 0.0
2014-Sep-26 01:31N 01°17' E 103°44'0 0.0
2014-Sep-26 00:31N 01°17' E 103°44'0 0.0
2014-Sep-25 23:31N 01°17' E 103°44'0 0.0
2014-Sep-25 22:31N 01°17' E 103°44'0 0.0
2014-Sep-25 21:31N 01°17' E 103°44'0 0.0
2014-Sep-25 20:31N 01°17' E 103°44'0 0.0
2014-Sep-25 19:31N 01°17' E 103°44'0 0.0
2014-Sep-25 18:31N 01°17' E 103°44'0 0.0
2014-Sep-25 17:31N 01°17' E 103°44'0 0.0
2014-Sep-25 16:31N 01°17' E 103°44'0 0.0
2014-Sep-25 15:31N 01°17' E 103°44'0 0.0
2014-Sep-25 14:31N 01°17' E 103°44'0 0.0
2014-Sep-25 13:31N 01°17' E 103°44'0 0.0
2014-Sep-25 12:31N 01°17' E 103°44'0 0.0
2014-Sep-25 11:31N 01°17' E 103°44'0 0.0
2014-Sep-25 10:31N 01°17' E 103°44'0 0.0
2014-Sep-25 09:31N 01°17' E 103°44'0 0.0
2014-Sep-25 08:28N 01°17' E 103°44'0 0.0
2014-Sep-25 07:31N 01°17' E 103°44'0 0.0
2014-Sep-25 06:31N 01°17' E 103°44'0 0.0
2014-Sep-25 05:31N 01°17' E 103°44'0 0.0
2014-Sep-25 04:25N 01°17' E 103°44'0 0.0
2014-Sep-25 03:31N 01°17' E 103°44'0 0.0
2014-Sep-25 02:31N 01°17' E 103°44'0 0.0
2014-Sep-25 01:31N 01°17' E 103°44'0 0.0
2014-Sep-25 00:33N 01°17' E 103°44'1 1.2
2014-Sep-24 23:33N 01°16' E 103°45'6 6.5
2014-Sep-24 22:33N 01°11' E 103°42'1 0.8
2014-Sep-24 21:33N 01°11' E 103°42'0 0.0
2014-Sep-24 20:33N 01°11' E 103°42'0 0.1
2014-Sep-24 19:33N 01°11' E 103°42'0 0.0
2014-Sep-24 18:33N 01°11' E 103°42'0 0.0
2014-Sep-24 17:33N 01°11' E 103°42'0 0.0
2014-Sep-24 16:33N 01°11' E 103°42'0 0.0
2014-Sep-24 15:33N 01°11' E 103°42'0 0.1
2014-Sep-24 14:33N 01°11' E 103°42'0 0.1
2014-Sep-24 13:33N 01°11' E 103°42'0 0.0
2014-Sep-24 12:33N 01°11' E 103°42'0 0.0
2014-Sep-24 11:33N 01°11' E 103°42'1 1.2
2014-Sep-24 10:33N 01°12' E 103°41'5 4.6
2014-Sep-24 09:33N 01°13' E 103°37'6 6.5
2014-Sep-24 08:33N 01°10' E 103°31'  
2014-Sep-21 16:26N 01°13' E 103°29'910.6
2014-Sep-21 15:33N 01°11' E 103°38'1010.1
2014-Sep-21 14:33N 01°11' E 103°48'1211.6
2014-Sep-21 13:33N 01°15' E 103°59'1210.6
2014-Sep-21 12:28N 01°17' E 104°10'  
Track history (hours):
 
Tides and Currents Weather Stations Pressure Air Temp Water Temp Dewpoint Dewpoint Depression Visibility Wind Speed Wind Dir Waves Ship Positions

Atlantic Aquarius

Last reported at 2014-Sep-28 13:31 UTC. Time now 2014-Nov-01 02:03 UTC.
Position N 01°16' E 104°08'.
Warning: this ship's position is 33 days out of date.

Length 183 m; draft 9.7 m.

Type: Tanker. MMSI: 477071400.

Date/timePositionNaut miles runAvg speedWind from/ knotsBaromVisibWave heightAir tempDewpointWater temp
2014-Sep-28 13:31N 01°16' E 104°08'8 8.8
2014-Sep-28 12:34N 01°14' E 104°00'8 7.7
2014-Sep-28 11:33N 01°12' E 103°53'9 9.1
2014-Sep-28 10:34N 01°07' E 103°45'8 7.6
2014-Sep-28 09:34N 01°03' E 103°39'8 7.9
2014-Sep-28 08:33N 01°09' E 103°34'7 7.2
2014-Sep-28 07:33N 01°11' E 103°40'2 1.5
2014-Sep-28 06:34N 01°11' E 103°42'0 0.0
2014-Sep-28 05:34N 01°11' E 103°42'0 0.0
2014-Sep-28 04:34N 01°11' E 103°42'0 0.2
2014-Sep-28 03:34N 01°11' E 103°42'0 0.0
2014-Sep-28 02:34N 01°11' E 103°42'0 0.0
2014-Sep-28 01:33N 01°11' E 103°42'0 0.0
2014-Sep-28 00:34N 01°11' E 103°42'0 0.0
2014-Sep-27 23:33N 01°11' E 103°42'0 0.0
2014-Sep-27 22:33N 01°11' E 103°42'0 0.0
2014-Sep-27 21:33N 01°11' E 103°42'0 0.1
2014-Sep-27 20:33N 01°11' E 103°42'0 0.2
2014-Sep-27 19:33N 01°11' E 103°42'0 0.0
2014-Sep-27 18:34N 01°11' E 103°42'0 0.1
2014-Sep-27 17:33N 01°11' E 103°42'2 1.8
2014-Sep-27 16:34N 01°11' E 103°40'7 7.0
2014-Sep-27 15:34N 01°17' E 103°44'0 0.2
2014-Sep-27 14:28N 01°17' E 103°44'0 0.0
2014-Sep-27 13:28N 01°17' E 103°44'0 0.0
2014-Sep-27 12:31N 01°17' E 103°44'0 0.0
2014-Sep-27 11:31N 01°17' E 103°44'0 0.0
2014-Sep-27 10:31N 01°17' E 103°44'0 0.0
2014-Sep-27 09:31N 01°17' E 103°44'0 0.0
2014-Sep-27 08:31N 01°17' E 103°44'0 0.0
2014-Sep-27 07:31N 01°17' E 103°44'0 0.0
2014-Sep-27 06:31N 01°17' E 103°44'0 0.0
2014-Sep-27 05:31N 01°17' E 103°44'0 0.0
2014-Sep-27 04:31N 01°17' E 103°44'0 0.0
2014-Sep-27 03:31N 01°17' E 103°44'0 0.0
2014-Sep-27 02:28N 01°17' E 103°44'0 0.0
2014-Sep-27 01:31N 01°17' E 103°44'0 0.0
2014-Sep-27 00:31N 01°17' E 103°44'0 0.0
2014-Sep-26 23:31N 01°17' E 103°44'0 0.0
2014-Sep-26 22:31N 01°17' E 103°44'0 0.0
2014-Sep-26 21:31N 01°17' E 103°44'0 0.0
2014-Sep-26 20:31N 01°17' E 103°44'0 0.0
2014-Sep-26 19:31N 01°17' E 103°44'0 0.0
2014-Sep-26 18:31N 01°17' E 103°44'0 0.0
2014-Sep-26 17:31N 01°17' E 103°44'0 0.0
2014-Sep-26 16:19N 01°17' E 103°44'0 0.0
2014-Sep-26 15:31N 01°17' E 103°44'0 0.0
2014-Sep-26 14:31N 01°17' E 103°44'0 0.0
2014-Sep-26 13:31N 01°17' E 103°44'0 0.0
2014-Sep-26 12:28N 01°17' E 103°44'0 0.0
2014-Sep-26 11:28N 01°17' E 103°44'0 0.0
2014-Sep-26 10:31N 01°17' E 103°44'0 0.0
2014-Sep-26 09:31N 01°17' E 103°44'0 0.0
2014-Sep-26 08:31N 01°17' E 103°44'0 0.0
2014-Sep-26 07:31N 01°17' E 103°44'0 0.0
2014-Sep-26 06:31N 01°17' E 103°44'0 0.0
2014-Sep-26 05:31N 01°17' E 103°44'0 0.0
2014-Sep-26 04:28N 01°17' E 103°44'0 0.0
2014-Sep-26 03:25N 01°17' E 103°44'0 0.0
2014-Sep-26 02:31N 01°17' E 103°44'0 0.0
2014-Sep-26 01:31N 01°17' E 103°44'0 0.0
2014-Sep-26 00:31N 01°17' E 103°44'0 0.0
2014-Sep-25 23:31N 01°17' E 103°44'0 0.0
2014-Sep-25 22:31N 01°17' E 103°44'0 0.0
2014-Sep-25 21:31N 01°17' E 103°44'0 0.0
2014-Sep-25 20:31N 01°17' E 103°44'0 0.0
2014-Sep-25 19:31N 01°17' E 103°44'0 0.0
2014-Sep-25 18:31N 01°17' E 103°44'0 0.0
2014-Sep-25 17:31N 01°17' E 103°44'0 0.0
2014-Sep-25 16:31N 01°17' E 103°44'0 0.0
2014-Sep-25 15:31N 01°17' E 103°44'0 0.0
2014-Sep-25 14:31N 01°17' E 103°44'0 0.0
2014-Sep-25 13:31N 01°17' E 103°44'0 0.0
2014-Sep-25 12:31N 01°17' E 103°44'0 0.0
2014-Sep-25 11:31N 01°17' E 103°44'0 0.0
2014-Sep-25 10:31N 01°17' E 103°44'0 0.0
2014-Sep-25 09:31N 01°17' E 103°44'0 0.0
2014-Sep-25 08:28N 01°17' E 103°44'0 0.0
2014-Sep-25 07:31N 01°17' E 103°44'0 0.0
2014-Sep-25 06:31N 01°17' E 103°44'0 0.0
2014-Sep-25 05:31N 01°17' E 103°44'0 0.0
2014-Sep-25 04:25N 01°17' E 103°44'0 0.0
2014-Sep-25 03:31N 01°17' E 103°44'0 0.0
2014-Sep-25 02:31N 01°17' E 103°44'0 0.0
2014-Sep-25 01:31N 01°17' E 103°44'0 0.0
2014-Sep-25 00:33N 01°17' E 103°44'1 1.2
2014-Sep-24 23:33N 01°16' E 103°45'6 6.5
2014-Sep-24 22:33N 01°11' E 103°42'1 0.8
2014-Sep-24 21:33N 01°11' E 103°42'0 0.0
2014-Sep-24 20:33N 01°11' E 103°42'0 0.1
2014-Sep-24 19:33N 01°11' E 103°42'0 0.0
2014-Sep-24 18:33N 01°11' E 103°42'0 0.0
2014-Sep-24 17:33N 01°11' E 103°42'0 0.0
2014-Sep-24 16:33N 01°11' E 103°42'0 0.0
2014-Sep-24 15:33N 01°11' E 103°42'0 0.1
2014-Sep-24 14:33N 01°11' E 103°42'0 0.1
2014-Sep-24 13:33N 01°11' E 103°42'0 0.0
2014-Sep-24 12:33N 01°11' E 103°42'0 0.0
2014-Sep-24 11:33N 01°11' E 103°42'1 1.2
2014-Sep-24 10:33N 01°12' E 103°41'5 4.6
2014-Sep-24 09:33N 01°13' E 103°37'6 6.5
2014-Sep-24 08:33N 01°10' E 103°31'  
2014-Sep-21 16:26N 01°13' E 103°29'910.6
2014-Sep-21 15:33N 01°11' E 103°38'1010.1
2014-Sep-21 14:33N 01°11' E 103°48'1211.6
2014-Sep-21 13:33N 01°15' E 103°59'1210.6
2014-Sep-21 12:28N 01°17' E 104°10'  

Dump ship's entire track history